Corinth Corners, Vermont
Current Conditions -  °F | °C
As of 7:34 AM on Friday 24 Oct 2014 (Local Time) from KMPV Reporting Station
Overcast Overcast  
Wind Chill:   Ceiling: 400
Heat Index:   Visibility: 10mi
Dew Point:   Wind: 8mph
Humidity: 97%   Direction: 330°NNW
Pressure: 29.83"   Gusts: NA
Location:  44.0361°N, 72.2949°W
Report Text: KMPV 241134Z AUTO 33007KT 10SM OVC004 04/04 A2983 RMK AO2 CIG 002V008 T00440039 $
Loading
Personal Weather Stations






























Interactive Weather Map
Tropical Storm Tracking
New forecast layout! Learn more

10-Day Weather Forecast

Advertisements
Track Severe Weather on mobile